Terminal Aerodrome Forecast
Issued by NWS

Home | Current Version | Previous Version | Text Only | Print | Product List | Glossary On
Versions: 1 2 3 4 5 6 7 8 9 10 11 12
872
FTUS44 KBMX 111133
TAFTOI
TAF
KTOI 111133Z 1112/1212 VRB03KT P6SM SKC
     FM111800 25007KT P6SM SCT050
     FM120000 VRB03KT P6SM BKN050=

USA.gov is the U.S. government's official web portal to all federal, state and local government web resources and services.